createdAt,value
2023-05-25T00:01:02.010Z,8.60
2023-05-25T00:03:30.407Z,8.60
2023-05-25T00:05:57.288Z,8.60
2023-05-25T00:08:23.544Z,8.60
2023-05-25T00:10:49.729Z,8.50
2023-05-25T00:13:16.010Z,8.50
2023-05-25T00:15:42.393Z,8.50
2023-05-25T00:18:09.184Z,8.50
2023-05-25T00:20:35.711Z,8.50
2023-05-25T00:23:02.351Z,8.40
2023-05-25T00:25:28.935Z,8.50
2023-05-25T00:27:55.301Z,8.50
2023-05-25T00:30:21.555Z,8.40
2023-05-25T00:32:47.798Z,8.40
2023-05-25T00:35:14.083Z,8.40
2023-05-25T00:37:40.773Z,8.40
2023-05-25T00:40:09.533Z,8.40
2023-05-25T00:42:37.713Z,8.40
2023-05-25T00:45:04.758Z,8.30
2023-05-25T00:47:31.435Z,8.30
2023-05-25T00:49:57.680Z,8.30
2023-05-25T00:52:26.374Z,8.20
2023-05-25T00:54:54.148Z,8.20
2023-05-25T00:57:22.879Z,8.20
2023-05-25T00:59:51.235Z,8.10
2023-05-25T01:02:19.237Z,8.00
2023-05-25T01:04:53.298Z,8.00
2023-05-25T01:07:22.901Z,8.00
2023-05-25T01:09:53.559Z,8.00
2023-05-25T01:12:19.832Z,8.00
2023-05-25T01:14:47.526Z,7.90
2023-05-25T01:17:15.380Z,7.90
2023-05-25T01:19:47.675Z,7.90
2023-05-25T01:22:27.676Z,7.80
2023-05-25T01:25:02.932Z,7.70
2023-05-25T01:27:57.212Z,7.70
2023-05-25T01:30:25.031Z,7.60
2023-05-25T01:32:51.361Z,7.50
2023-05-25T01:35:19.885Z,7.40
2023-05-25T01:37:46.467Z,7.40
2023-05-25T01:40:13.865Z,7.30
2023-05-25T01:42:40.245Z,7.30
2023-05-25T01:45:08.441Z,7.30
2023-05-25T01:48:06.482Z,7.20
2023-05-25T01:50:50.250Z,7.20
2023-05-25T01:53:21.385Z,8.40
2023-05-25T01:55:54.512Z,7.20
2023-05-25T01:58:20.696Z,7.20
2023-05-25T02:00:47.582Z,7.30
2023-05-25T02:03:13.786Z,7.30
2023-05-25T02:05:41.434Z,7.30
2023-05-25T02:08:07.666Z,7.30
2023-05-25T02:10:33.831Z,7.40
2023-05-25T02:13:00.045Z,7.40
2023-05-25T02:15:30.131Z,7.50
2023-05-25T02:17:57.334Z,7.60
2023-05-25T02:20:24.202Z,7.70
2023-05-25T02:22:51.114Z,7.80
2023-05-25T02:25:17.354Z,7.90
2023-05-25T02:27:44.062Z,7.90
2023-05-25T02:30:11.128Z,8.00
2023-05-25T02:32:37.656Z,8.10
2023-05-25T02:35:04.360Z,8.20
2023-05-25T02:37:31.149Z,8.20
2023-05-25T02:39:57.355Z,8.30
2023-05-25T02:42:23.528Z,8.30
2023-05-25T02:44:50.082Z,8.30
2023-05-25T02:47:17.618Z,8.30
2023-05-25T02:49:44.414Z,8.40
2023-05-25T02:52:10.704Z,8.40
2023-05-25T02:54:36.995Z,8.40
2023-05-25T02:57:03.991Z,8.40
2023-05-25T02:59:30.471Z,8.50
2023-05-25T03:01:57.766Z,8.50
2023-05-25T03:04:24.027Z,8.50
2023-05-25T03:06:50.423Z,8.60
2023-05-25T03:09:16.927Z,8.60
2023-05-25T03:11:43.124Z,8.60
2023-05-25T03:14:10.063Z,8.60
2023-05-25T03:16:38.240Z,8.70
2023-05-25T03:19:05.707Z,8.70
2023-05-25T03:21:32.431Z,8.80
2023-05-25T03:23:58.942Z,8.90
2023-05-25T03:26:26.166Z,8.90
2023-05-25T03:28:52.590Z,8.90
2023-05-25T03:31:18.914Z,9.00
2023-05-25T03:33:45.273Z,6.60
2023-05-25T03:36:13.074Z,9.10
2023-05-25T03:38:39.696Z,9.10
2023-05-25T03:41:05.951Z,9.80
2023-05-25T03:43:32.535Z,9.10
2023-05-25T03:45:58.895Z,9.10
2023-05-25T03:48:25.453Z,9.10
2023-05-25T03:50:52.031Z,9.10
2023-05-25T03:53:18.246Z,9.10
2023-05-25T03:55:44.743Z,9.20
2023-05-25T03:58:11.372Z,9.10
2023-05-25T04:00:37.965Z,9.20
2023-05-25T04:03:04.557Z,9.30
2023-05-25T04:05:30.850Z,9.30
2023-05-25T04:07:57.474Z,9.40
2023-05-25T04:10:23.731Z,9.40
2023-05-25T04:12:51.357Z,9.50
2023-05-25T04:15:17.627Z,9.50
2023-05-25T04:17:44.435Z,9.60
2023-05-25T04:20:10.924Z,9.60
2023-05-25T04:22:38.519Z,9.70
2023-05-25T04:25:07.091Z,9.70
2023-05-25T04:27:33.663Z,9.70
2023-05-25T04:30:00.337Z,9.80
2023-05-25T04:32:29.496Z,9.90
2023-05-25T04:34:56.041Z,9.90
2023-05-25T04:37:26.534Z,10.00
2023-05-25T04:39:53.592Z,10.10
2023-05-25T04:42:23.530Z,10.20
2023-05-25T04:44:55.076Z,10.20
2023-05-25T04:47:24.189Z,10.30
2023-05-25T04:49:50.725Z,10.40
2023-05-25T04:52:16.940Z,10.40
2023-05-25T04:54:43.255Z,10.50
2023-05-25T04:57:12.604Z,10.60
2023-05-25T04:59:38.762Z,10.70
2023-05-25T05:02:05.016Z,10.70
2023-05-25T05:04:31.193Z,10.70
2023-05-25T05:06:58.972Z,10.80
2023-05-25T05:09:25.705Z,10.90
2023-05-25T05:11:51.907Z,10.90
2023-05-25T05:14:18.162Z,10.90
2023-05-25T05:16:44.387Z,10.90
2023-05-25T05:19:10.917Z,10.90
2023-05-25T05:21:37.104Z,10.90
2023-05-25T05:24:03.715Z,11.00
2023-05-25T05:26:30.646Z,11.10
2023-05-25T05:28:58.955Z,11.10
2023-05-25T05:31:26.696Z,11.20
2023-05-25T05:33:52.939Z,11.20
2023-05-25T05:36:19.213Z,11.10
2023-05-25T05:38:46.117Z,11.20
2023-05-25T05:41:13.602Z,11.20
2023-05-25T05:43:41.653Z,11.30
2023-05-25T05:46:09.818Z,11.40
2023-05-25T05:48:36.648Z,11.20
2023-05-25T05:51:05.708Z,11.30
2023-05-25T05:53:31.938Z,11.20
2023-05-25T05:55:59.274Z,11.30
2023-05-25T05:58:29.096Z,11.40
2023-05-25T06:00:55.671Z,11.50
2023-05-25T06:03:22.850Z,11.50
2023-05-25T06:05:49.291Z,11.60
2023-05-25T06:08:15.655Z,11.70
2023-05-25T06:10:41.908Z,11.70
2023-05-25T06:13:08.122Z,11.80
2023-05-25T06:15:35.381Z,11.80
2023-05-25T06:18:01.664Z,11.80
2023-05-25T06:20:28.031Z,11.90
2023-05-25T06:22:54.533Z,12.00
2023-05-25T06:25:20.784Z,12.10
2023-05-25T06:27:46.928Z,12.00
2023-05-25T06:30:13.254Z,12.10
2023-05-25T06:32:39.555Z,12.20
2023-05-25T06:35:08.095Z,12.30
2023-05-25T06:37:38.041Z,12.30
2023-05-25T06:40:05.344Z,12.50
2023-05-25T06:42:31.613Z,12.60
2023-05-25T06:44:57.842Z,12.60
2023-05-25T06:47:24.147Z,12.90
2023-05-25T06:49:50.376Z,13.00
2023-05-25T06:52:16.558Z,13.10
2023-05-25T06:54:42.851Z,13.20
2023-05-25T06:57:09.105Z,13.30
2023-05-25T06:59:35.288Z,13.30
2023-05-25T07:02:01.802Z,13.40
2023-05-25T07:04:28.058Z,13.30
2023-05-25T07:06:54.346Z,13.40
2023-05-25T07:09:21.616Z,13.30
2023-05-25T07:11:47.803Z,13.40
2023-05-25T07:14:13.984Z,13.60
2023-05-25T07:16:40.833Z,13.60
2023-05-25T07:19:07.300Z,13.80
2023-05-25T07:21:33.571Z,13.90
2023-05-25T07:24:00.915Z,14.10
2023-05-25T07:26:27.446Z,14.20
2023-05-25T07:28:53.785Z,14.40
2023-05-25T07:31:20.065Z,14.60
2023-05-25T07:33:46.526Z,14.60
2023-05-25T07:36:12.798Z,14.60
2023-05-25T07:38:39.463Z,14.70
2023-05-25T07:41:05.815Z,14.80
2023-05-25T07:43:32.053Z,14.90
2023-05-25T07:45:58.618Z,15.00
2023-05-25T07:48:24.967Z,15.00
2023-05-25T07:50:51.700Z,15.10
2023-05-25T07:53:18.002Z,15.20
2023-05-25T07:55:44.569Z,15.20
2023-05-25T07:58:11.248Z,15.40
2023-05-25T08:00:37.520Z,15.40
2023-05-25T08:03:04.256Z,14.80
2023-05-25T08:05:30.561Z,14.60
2023-05-25T08:07:56.762Z,14.90
2023-05-25T08:10:23.080Z,14.90
2023-05-25T08:12:51.166Z,15.20
2023-05-25T08:15:18.767Z,15.50
2023-05-25T08:17:45.280Z,15.60
2023-05-25T08:20:12.300Z,15.60
2023-05-25T08:22:38.634Z,15.80
2023-05-25T08:25:06.300Z,15.70
2023-05-25T08:27:35.240Z,15.70
2023-05-25T08:30:04.584Z,15.90
2023-05-25T08:32:30.886Z,15.70
2023-05-25T08:34:57.210Z,15.80
2023-05-25T08:37:24.271Z,15.90
2023-05-25T08:39:50.537Z,15.80
2023-05-25T08:42:16.793Z,15.90
2023-05-25T08:44:43.133Z,16.30
2023-05-25T08:47:09.320Z,16.20
2023-05-25T08:49:38.496Z,16.10
2023-05-25T08:52:06.118Z,15.90
2023-05-25T08:54:36.409Z,15.70
2023-05-25T08:57:10.912Z,16.00
2023-05-25T08:59:47.202Z,15.90
2023-05-25T09:04:06.710Z,16.30
2023-05-25T09:06:36.094Z,16.20
2023-05-25T09:09:05.371Z,16.30
2023-05-25T09:11:38.565Z,16.30
2023-05-25T09:14:07.543Z,16.60
2023-05-25T09:16:34.004Z,16.70
2023-05-25T09:19:01.340Z,16.80
2023-05-25T09:21:27.508Z,17.00
2023-05-25T09:23:53.813Z,17.20
2023-05-25T09:26:20.156Z,17.00
2023-05-25T09:28:47.286Z,16.80
2023-05-25T09:31:14.875Z,17.40
2023-05-25T09:33:41.827Z,17.80
2023-05-25T09:36:08.614Z,18.20
2023-05-25T09:38:35.863Z,18.20
2023-05-25T09:41:03.970Z,19.40
2023-05-25T09:43:41.854Z,19.50
2023-05-25T09:46:13.700Z,19.40
2023-05-25T09:48:40.732Z,20.20
2023-05-25T09:51:08.332Z,20.50
2023-05-25T09:53:35.129Z,20.80
2023-05-25T09:56:03.939Z,21.10
2023-05-25T09:58:30.655Z,21.30
2023-05-25T10:00:57.571Z,21.00
2023-05-25T10:03:24.066Z,21.00
2023-05-25T10:05:50.921Z,19.60
2023-05-25T10:08:20.752Z,18.80
2023-05-25T10:10:49.522Z,19.10
2023-05-25T10:13:17.871Z,19.50
2023-05-25T10:15:44.511Z,20.00
2023-05-25T10:18:10.864Z,20.40
2023-05-25T10:20:37.392Z,19.20
2023-05-25T10:23:24.635Z,19.90
2023-05-25T10:25:51.123Z,20.10
2023-05-25T10:28:31.065Z,19.50
2023-05-25T10:30:58.166Z,20.20
2023-05-25T10:33:24.684Z,19.10
2023-05-25T10:36:02.932Z,19.20
2023-05-25T10:38:35.143Z,18.40
2023-05-25T10:41:01.997Z,18.20
2023-05-25T10:43:28.307Z,18.90
2023-05-25T10:45:55.564Z,19.50
2023-05-25T10:48:23.600Z,19.70
2023-05-25T10:50:51.165Z,18.50
2023-05-25T10:53:20.434Z,18.20
2023-05-25T10:56:05.902Z,18.60
2023-05-25T10:58:32.257Z,19.40
2023-05-25T11:01:00.765Z,19.00
2023-05-25T11:03:47.901Z,19.60
2023-05-25T11:06:14.940Z,18.70
2023-05-25T11:08:58.456Z,19.30
2023-05-25T11:18:13.989Z,19.70
2023-05-25T11:20:41.804Z,19.20
2023-05-25T11:23:23.387Z,19.00
2023-05-25T11:25:50.046Z,19.00
2023-05-25T11:28:16.306Z,19.30
2023-05-25T11:30:42.634Z,19.00
2023-05-25T11:33:09.049Z,19.90
2023-05-25T11:35:38.575Z,19.60
2023-05-25T11:38:07.774Z,19.00
2023-05-25T11:40:35.530Z,19.10
2023-05-25T11:43:03.539Z,19.30
2023-05-25T11:45:33.427Z,19.00
2023-05-25T11:47:59.955Z,19.20
2023-05-25T11:50:27.704Z,19.50
2023-05-25T11:52:53.953Z,19.90
2023-05-25T11:55:20.769Z,20.50
2023-05-25T11:57:47.043Z,20.60
2023-05-25T12:00:23.222Z,20.00
2023-05-25T12:02:49.573Z,19.70
2023-05-25T12:05:16.030Z,19.40
2023-05-25T12:07:43.337Z,19.00
2023-05-25T12:10:11.584Z,19.70
2023-05-25T12:12:50.429Z,20.00
2023-05-25T12:15:21.001Z,19.60
2023-05-25T12:17:47.322Z,19.50
2023-05-25T12:20:14.623Z,20.00
2023-05-25T12:22:41.071Z,20.00
2023-05-25T12:25:09.636Z,20.10
2023-05-25T12:27:36.642Z,19.60
2023-05-25T12:30:05.114Z,20.00
2023-05-25T12:32:31.679Z,19.90
2023-05-25T12:35:05.425Z,20.00
2023-05-25T12:37:32.092Z,20.90
2023-05-25T12:40:00.128Z,20.60
2023-05-25T12:42:27.274Z,20.60
2023-05-25T12:45:01.150Z,20.60
2023-05-25T12:47:29.403Z,20.80
2023-05-25T12:50:15.026Z,20.00
2023-05-25T12:52:43.487Z,19.50
2023-05-25T12:55:32.291Z,19.20
2023-05-25T12:58:02.725Z,18.60
2023-05-25T13:00:36.481Z,18.90
2023-05-25T13:03:03.453Z,19.20
2023-05-25T13:05:33.374Z,19.20
2023-05-25T13:08:00.974Z,19.60
2023-05-25T13:10:28.405Z,19.70
2023-05-25T13:12:57.799Z,19.60
2023-05-25T13:15:25.594Z,20.10
2023-05-25T13:17:54.071Z,21.50
2023-05-25T13:20:22.002Z,22.20
2023-05-25T13:22:51.967Z,22.50
2023-05-25T13:25:18.634Z,23.10
2023-05-25T13:27:47.978Z,23.70
2023-05-25T13:30:14.838Z,22.40
2023-05-25T13:32:44.102Z,21.70
2023-05-25T13:35:29.656Z,21.10
2023-05-25T13:37:55.956Z,20.70
2023-05-25T13:40:22.156Z,20.50
2023-05-25T13:42:48.384Z,20.60
2023-05-25T13:45:14.650Z,20.50
2023-05-25T13:47:43.011Z,20.20
2023-05-25T13:50:10.648Z,20.10
2023-05-25T13:52:37.804Z,19.80
2023-05-25T13:55:04.469Z,19.70
2023-05-25T13:57:30.721Z,19.60
2023-05-25T13:59:56.953Z,19.60
2023-05-25T14:02:23.414Z,19.90
2023-05-25T14:04:49.770Z,20.40
2023-05-25T14:07:16.028Z,20.50
2023-05-25T14:09:42.235Z,20.50
2023-05-25T14:12:08.504Z,19.60
2023-05-25T14:14:35.697Z,19.10
2023-05-25T14:17:01.964Z,19.30
2023-05-25T14:19:28.222Z,19.40
2023-05-25T14:22:11.100Z,19.10
2023-05-25T14:24:40.460Z,19.30
2023-05-25T14:27:06.713Z,19.30
2023-05-25T14:29:32.917Z,19.20
2023-05-25T14:31:59.359Z,19.70
2023-05-25T14:34:25.848Z,19.90
2023-05-25T14:36:52.028Z,19.80
2023-05-25T14:39:18.362Z,19.30
2023-05-25T14:41:44.672Z,19.30
2023-05-25T14:44:11.816Z,19.40
2023-05-25T14:46:38.099Z,19.30
2023-05-25T14:49:04.478Z,19.30
2023-05-25T14:51:30.709Z,19.40
2023-05-25T14:53:59.640Z,19.30
2023-05-25T14:56:25.962Z,19.30
2023-05-25T14:58:52.165Z,19.40
2023-05-25T15:01:18.617Z,19.50
2023-05-25T15:03:45.246Z,19.50
2023-05-25T15:06:11.527Z,19.60
2023-05-25T15:08:37.847Z,19.50
2023-05-25T15:11:04.430Z,19.40
2023-05-25T15:13:30.700Z,19.40
2023-05-25T15:15:57.046Z,19.40
2023-05-25T15:18:23.276Z,19.40
2023-05-25T15:20:49.475Z,19.30
2023-05-25T15:23:16.264Z,19.30
2023-05-25T15:25:42.431Z,19.30
2023-05-25T15:28:08.682Z,19.30
2023-05-25T15:30:35.016Z,19.60
2023-05-25T15:33:01.466Z,20.00
2023-05-25T15:35:31.824Z,20.30
2023-05-25T15:37:58.556Z,20.60
2023-05-25T15:40:24.939Z,20.20
2023-05-25T15:42:51.249Z,19.90
2023-05-25T15:45:17.685Z,20.30
2023-05-25T15:47:44.031Z,20.20
2023-05-25T15:50:10.911Z,20.90
2023-05-25T15:52:37.132Z,21.20
2023-05-25T15:55:04.348Z,21.50
2023-05-25T15:57:30.622Z,21.20
2023-05-25T15:59:56.999Z,20.80
2023-05-25T16:02:23.283Z,20.80
2023-05-25T16:04:49.758Z,20.90
2023-05-25T16:07:15.968Z,21.10
2023-05-25T16:09:42.222Z,20.90
2023-05-25T16:12:08.512Z,20.30
2023-05-25T16:14:35.365Z,20.50
2023-05-25T16:17:01.638Z,20.60
2023-05-25T16:19:27.861Z,20.30
2023-05-25T16:21:54.446Z,20.00
2023-05-25T16:24:20.685Z,20.10
2023-05-25T16:26:46.919Z,20.10
2023-05-25T16:29:13.146Z,20.10
2023-05-25T16:31:39.493Z,19.90
2023-05-25T16:34:06.407Z,20.00
2023-05-25T16:36:32.709Z,19.90
2023-05-25T16:38:59.025Z,19.90
2023-05-25T16:41:26.776Z,19.80
2023-05-25T16:43:53.489Z,19.60
2023-05-25T16:46:20.633Z,19.40
2023-05-25T16:48:46.899Z,19.40
2023-05-25T16:51:15.522Z,19.30
2023-05-25T16:53:42.884Z,19.30
2023-05-25T16:56:09.344Z,19.20
2023-05-25T16:58:35.664Z,19.20
2023-05-25T17:01:01.912Z,19.00
2023-05-25T17:03:28.386Z,19.10
2023-05-25T17:05:54.944Z,19.10
2023-05-25T17:08:21.598Z,19.00
2023-05-25T17:10:47.980Z,18.90
2023-05-25T17:13:14.733Z,18.90
2023-05-25T17:15:40.984Z,18.80
2023-05-25T17:18:07.434Z,18.60
2023-05-25T17:20:33.740Z,18.60
2023-05-25T17:23:00.863Z,18.50
2023-05-25T17:25:28.183Z,18.40
2023-05-25T17:27:54.544Z,18.30
2023-05-25T17:30:20.950Z,18.20
2023-05-25T17:32:47.865Z,18.10
2023-05-25T17:35:14.154Z,18.10
2023-05-25T17:37:40.362Z,18.00
2023-05-25T17:40:08.208Z,18.00
2023-05-25T17:42:34.421Z,17.80
2023-05-25T17:45:00.722Z,17.70
2023-05-25T17:47:27.161Z,17.60
2023-05-25T17:49:53.975Z,17.40
2023-05-25T17:52:32.737Z,17.30
2023-05-25T17:54:58.985Z,17.30
2023-05-25T17:57:25.616Z,17.20
2023-05-25T17:59:51.980Z,17.10
2023-05-25T18:02:18.412Z,17.00
2023-05-25T18:04:44.797Z,16.80
2023-05-25T18:07:11.133Z,16.60
2023-05-25T18:09:37.407Z,16.40
2023-05-25T18:12:03.987Z,16.20
2023-05-25T18:14:34.767Z,16.00
2023-05-25T18:17:01.229Z,15.80
2023-05-25T18:19:27.676Z,15.60
2023-05-25T18:21:53.965Z,15.40
2023-05-25T18:24:20.181Z,15.30
2023-05-25T18:26:46.448Z,15.10
2023-05-25T18:29:13.072Z,14.90
2023-05-25T18:31:44.850Z,14.70
2023-05-25T18:34:11.162Z,14.60
2023-05-25T18:36:37.396Z,14.40
2023-05-25T18:39:04.719Z,14.30
2023-05-25T18:41:31.144Z,14.20
2023-05-25T18:43:57.398Z,14.00
2023-05-25T18:46:24.835Z,13.80
2023-05-25T18:48:51.173Z,13.70
2023-05-25T18:51:22.136Z,13.60
2023-05-25T18:53:48.592Z,13.50
2023-05-25T18:56:14.879Z,13.30
2023-05-25T18:58:41.656Z,13.20
2023-05-25T19:01:08.795Z,13.10
2023-05-25T19:03:35.850Z,13.00
2023-05-25T19:06:02.170Z,12.90
2023-05-25T19:08:28.597Z,12.80
2023-05-25T19:10:54.854Z,14.40
2023-05-25T19:13:22.369Z,12.70
2023-05-25T19:15:49.809Z,12.70
2023-05-25T19:18:16.361Z,12.50
2023-05-25T19:20:42.615Z,12.50
2023-05-25T19:23:09.098Z,12.30
2023-05-25T19:25:35.736Z,12.30
2023-05-25T19:28:02.243Z,12.20
2023-05-25T19:30:29.451Z,12.00
2023-05-25T19:32:55.868Z,11.90
2023-05-25T19:35:22.704Z,11.90
2023-05-25T19:37:49.048Z,11.80
2023-05-25T19:40:15.812Z,11.70
2023-05-25T19:42:42.960Z,11.60
2023-05-25T19:45:10.340Z,11.70
2023-05-25T19:47:37.281Z,11.60
2023-05-25T19:50:04.550Z,11.50
2023-05-25T19:52:31.020Z,11.40
2023-05-25T19:54:58.151Z,11.30
2023-05-25T19:57:26.707Z,11.30
2023-05-25T19:59:54.111Z,11.20
2023-05-25T20:02:21.067Z,11.20
2023-05-25T20:04:47.446Z,11.10
2023-05-25T20:07:15.113Z,11.10
2023-05-25T20:09:42.231Z,11.10
2023-05-25T20:12:09.976Z,11.00
2023-05-25T20:14:36.286Z,10.90
2023-05-25T20:17:03.464Z,10.90
2023-05-25T20:19:33.304Z,10.80
2023-05-25T20:22:01.213Z,10.70
2023-05-25T20:24:28.321Z,10.70
2023-05-25T20:26:56.040Z,10.70
2023-05-25T20:29:23.904Z,10.60
2023-05-25T20:31:50.675Z,10.50
2023-05-25T20:34:17.373Z,9.80
2023-05-25T20:36:43.726Z,10.40
2023-05-25T20:39:11.179Z,10.40
2023-05-25T20:41:38.935Z,10.30
2023-05-25T20:44:06.468Z,10.30
2023-05-25T20:46:34.056Z,10.20
2023-05-25T20:49:01.000Z,10.20
2023-05-25T20:51:27.471Z,10.10
2023-05-25T20:53:53.752Z,10.10
2023-05-25T20:56:21.605Z,10.10
2023-05-25T20:58:48.093Z,10.00
2023-05-25T21:01:15.617Z,10.00
2023-05-25T21:03:42.562Z,9.90
2023-05-25T21:06:08.839Z,9.90
2023-05-25T21:08:35.281Z,10.00
2023-05-25T21:11:01.913Z,11.60
2023-05-25T21:13:28.369Z,9.90
2023-05-25T21:15:55.242Z,9.90
2023-05-25T21:18:21.560Z,9.80
2023-05-25T21:20:47.866Z,9.80
2023-05-25T21:23:14.218Z,9.70
2023-05-25T21:25:41.884Z,9.70
2023-05-25T21:28:09.680Z,9.60
2023-05-25T21:30:35.896Z,9.60
2023-05-25T21:33:02.749Z,9.50
2023-05-25T21:35:29.154Z,9.50
2023-05-25T21:37:55.510Z,9.50
2023-05-25T21:40:21.703Z,9.40
2023-05-25T21:42:50.349Z,9.40
2023-05-25T21:45:17.623Z,9.40
2023-05-25T21:47:43.890Z,9.50
2023-05-25T21:50:10.204Z,9.50
2023-05-25T21:52:39.276Z,9.50
2023-05-25T21:55:06.173Z,9.50
2023-05-25T21:57:32.402Z,9.50
2023-05-25T21:59:58.602Z,9.50
2023-05-25T22:02:25.172Z,9.50
2023-05-25T22:04:51.488Z,9.50
2023-05-25T22:07:18.225Z,9.40
2023-05-25T22:09:44.463Z,9.40
2023-05-25T22:12:11.692Z,9.50
2023-05-25T22:14:38.700Z,9.40
2023-05-25T22:17:06.430Z,9.40
2023-05-25T22:19:32.798Z,8.10
2023-05-25T22:21:59.031Z,9.50
2023-05-25T22:24:25.273Z,9.50
2023-05-25T22:26:51.793Z,9.50
2023-05-25T22:29:17.989Z,9.60
2023-05-25T22:31:44.352Z,9.60
2023-05-25T22:34:10.633Z,9.70
2023-05-25T22:36:37.162Z,9.60
2023-05-25T22:39:03.491Z,9.60
2023-05-25T22:41:29.707Z,9.60
2023-05-25T22:43:55.884Z,9.60
2023-05-25T22:46:23.367Z,9.50
2023-05-25T22:48:49.583Z,9.50
2023-05-25T22:51:15.898Z,9.40
2023-05-25T22:53:42.257Z,9.40
2023-05-25T22:56:08.530Z,9.40
2023-05-25T22:58:35.498Z,9.40
2023-05-25T23:01:01.755Z,9.40
2023-05-25T23:03:28.089Z,9.40
2023-05-25T23:05:55.204Z,9.70
2023-05-25T23:08:21.453Z,9.70
2023-05-25T23:10:47.664Z,9.80
2023-05-25T23:13:14.537Z,10.30
2023-05-25T23:15:43.602Z,10.50
2023-05-25T23:18:10.701Z,10.60
2023-05-25T23:20:37.006Z,10.70
2023-05-25T23:23:04.737Z,10.80
2023-05-25T23:25:30.903Z,10.90
2023-05-25T23:27:57.225Z,10.90
2023-05-25T23:30:23.723Z,10.90
2023-05-25T23:32:50.049Z,10.80
2023-05-25T23:35:16.288Z,11.70
2023-05-25T23:37:44.064Z,10.70
2023-05-25T23:40:11.314Z,10.60
2023-05-25T23:42:38.918Z,10.60
2023-05-25T23:45:07.329Z,10.50
2023-05-25T23:47:34.017Z,10.40
2023-05-25T23:50:00.276Z,10.20
2023-05-25T23:52:26.526Z,10.10
2023-05-25T23:54:52.686Z,10.00
2023-05-25T23:57:19.025Z,9.90
2023-05-25T23:59:45.212Z,9.90
